sensor_id;sensor_type;location;lat;lon;timestamp;pressure;altitude;pressure_sealevel;temperature;humidity
17781;BME280;8498;52.516;13.790;2023-01-31T00:06:42;100759.41;;;5.50;72.64
17781;BME280;8498;52.516;13.790;2023-01-31T00:12:04;100762.91;;;5.51;72.40
17781;BME280;8498;52.516;13.790;2023-01-31T00:17:27;100773.44;;;5.51;72.34
17781;BME280;8498;52.516;13.790;2023-01-31T00:22:49;100774.91;;;5.58;72.36
17781;BME280;8498;52.516;13.790;2023-01-31T00:28:11;100781.16;;;5.56;72.27
17781;BME280;8498;52.516;13.790;2023-01-31T00:33:35;100792.13;;;5.46;72.94
17781;BME280;8498;52.516;13.790;2023-01-31T00:39:00;100788.19;;;5.36;73.34
17781;BME280;8498;52.516;13.790;2023-01-31T00:44:25;100790.78;;;5.18;73.86
17781;BME280;8498;52.516;13.790;2023-01-31T00:49:48;100811.03;;;5.36;73.88
17781;BME280;8498;52.516;13.790;2023-01-31T00:55:10;100810.38;;;5.31;73.90
17781;BME280;8498;52.516;13.790;2023-01-31T01:00:32;100828.03;;;5.29;74.61
17781;BME280;8498;52.516;13.790;2023-01-31T01:05:55;100835.78;;;5.32;74.61
17781;BME280;8498;52.516;13.790;2023-01-31T01:11:29;100833.66;;;5.40;73.75
17781;BME280;8498;52.516;13.790;2023-01-31T01:16:52;100817.84;;;5.40;73.43
17781;BME280;8498;52.516;13.790;2023-01-31T01:22:14;100838.66;;;5.27;73.96
17781;BME280;8498;52.516;13.790;2023-01-31T01:27:37;100845.94;;;5.21;73.70
17781;BME280;8498;52.516;13.790;2023-01-31T01:32:59;100855.94;;;5.33;73.10
17781;BME280;8498;52.516;13.790;2023-01-31T01:38:22;100860.41;;;5.31;73.01
17781;BME280;8498;52.516;13.790;2023-01-31T01:49:25;100879.94;;;5.27;73.34
17781;BME280;8498;52.516;13.790;2023-01-31T01:54:54;100879.53;;;5.36;73.03
17781;BME280;8498;52.516;13.790;2023-01-31T02:00:27;100904.28;;;5.32;73.37
17781;BME280;8498;52.516;13.790;2023-01-31T02:05:56;100903.75;;;5.44;73.28
17781;BME280;8498;52.516;13.790;2023-01-31T02:11:27;100904.94;;;5.57;73.19
17781;BME280;8498;52.516;13.790;2023-01-31T02:16:52;100898.53;;;5.42;73.35
17781;BME280;8498;52.516;13.790;2023-01-31T02:22:21;100903.75;;;5.44;73.39
17781;BME280;8498;52.516;13.790;2023-01-31T02:34:11;100923.63;;;5.31;73.57
17781;BME280;8498;52.516;13.790;2023-01-31T02:39:52;100942.19;;;5.07;74.39
17781;BME280;8498;52.516;13.790;2023-01-31T02:51:17;100960.91;;;5.22;74.45
17781;BME280;8498;52.516;13.790;2023-01-31T02:56:45;100962.50;;;5.26;74.22
17781;BME280;8498;52.516;13.790;2023-01-31T03:02:10;100961.31;;;5.33;74.06
17781;BME280;8498;52.516;13.790;2023-01-31T03:07:37;100957.22;;;5.26;74.31
17781;BME280;8498;52.516;13.790;2023-01-31T03:24:19;100966.44;;;5.15;75.33
17781;BME280;8498;52.516;13.790;2023-01-31T03:29:43;100967.03;;;5.00;75.88
17781;BME280;8498;52.516;13.790;2023-01-31T03:35:06;100997.91;;;5.19;75.66
17781;BME280;8498;52.516;13.790;2023-01-31T03:40:40;101011.75;;;5.02;76.48
17781;BME280;8498;52.516;13.790;2023-01-31T03:46:14;101016.09;;;5.03;76.50
17781;BME280;8498;52.516;13.790;2023-01-31T03:51:46;101021.69;;;4.95;76.87
17781;BME280;8498;52.516;13.790;2023-01-31T03:57:17;101034.91;;;4.94;76.86
17781;BME280;8498;52.516;13.790;2023-01-31T04:02:42;101026.56;;;4.83;77.08
17781;BME280;8498;52.516;13.790;2023-01-31T04:08:07;101044.19;;;4.80;77.52
17781;BME280;8498;52.516;13.790;2023-01-31T04:13:30;101032.72;;;4.82;77.67
17781;BME280;8498;52.516;13.790;2023-01-31T04:18:53;101028.69;;;4.73;78.13
17781;BME280;8498;52.516;13.790;2023-01-31T04:24:17;101035.13;;;4.66;78.33
17781;BME280;8498;52.516;13.790;2023-01-31T04:29:39;101036.53;;;4.51;78.60
17781;BME280;8498;52.516;13.790;2023-01-31T04:35:02;101040.47;;;4.63;78.41
17781;BME280;8498;52.516;13.790;2023-01-31T04:40:25;101041.50;;;4.59;78.41
17781;BME280;8498;52.516;13.790;2023-01-31T04:45:47;101042.56;;;4.55;78.64
17781;BME280;8498;52.516;13.790;2023-01-31T04:51:09;101056.16;;;4.42;79.28
17781;BME280;8498;52.516;13.790;2023-01-31T04:56:32;101058.53;;;4.49;79.46
17781;BME280;8498;52.516;13.790;2023-01-31T05:01:54;101069.25;;;4.44;79.93
17781;BME280;8498;52.516;13.790;2023-01-31T05:07:16;101091.03;;;4.48;80.27
17781;BME280;8498;52.516;13.790;2023-01-31T05:12:39;101085.91;;;4.45;80.73
17781;BME280;8498;52.516;13.790;2023-01-31T05:18:01;101089.06;;;4.29;81.86
17781;BME280;8498;52.516;13.790;2023-01-31T05:23:26;101077.50;;;4.35;82.46
17781;BME280;8498;52.516;13.790;2023-01-31T05:28:49;101076.56;;;4.36;82.46
17781;BME280;8498;52.516;13.790;2023-01-31T05:34:12;101074.34;;;4.49;82.12
17781;BME280;8498;52.516;13.790;2023-01-31T05:39:36;101075.47;;;4.41;83.02
17781;BME280;8498;52.516;13.790;2023-01-31T05:44:58;101079.53;;;4.50;82.72
17781;BME280;8498;52.516;13.790;2023-01-31T05:50:21;101075.25;;;4.48;82.72
17781;BME280;8498;52.516;13.790;2023-01-31T05:55:43;101086.22;;;4.59;82.82
17781;BME280;8498;52.516;13.790;2023-01-31T06:01:06;101103.88;;;4.57;82.80
17781;BME280;8498;52.516;13.790;2023-01-31T06:06:28;101097.56;;;4.61;82.97
17781;BME280;8498;52.516;13.790;2023-01-31T06:11:52;101102.03;;;4.59;82.96
17781;BME280;8498;52.516;13.790;2023-01-31T06:17:14;101088.88;;;4.59;83.46
17781;BME280;8498;52.516;13.790;2023-01-31T06:22:36;101096.19;;;4.74;83.51
17781;BME280;8498;52.516;13.790;2023-01-31T06:27:59;101101.56;;;4.71;83.58
17781;BME280;8498;52.516;13.790;2023-01-31T06:33:21;101097.47;;;4.87;84.16
17781;BME280;8498;52.516;13.790;2023-01-31T06:38:59;101105.13;;;5.38;84.16
17781;BME280;8498;52.516;13.790;2023-01-31T06:44:21;101116.38;;;5.42;81.36
17781;BME280;8498;52.516;13.790;2023-01-31T06:49:44;101121.28;;;5.29;81.84
17781;BME280;8498;52.516;13.790;2023-01-31T06:55:06;101127.31;;;5.31;81.97
17781;BME280;8498;52.516;13.790;2023-01-31T07:00:29;101115.22;;;5.27;82.11
17781;BME280;8498;52.516;13.790;2023-01-31T07:05:51;101121.91;;;5.36;81.81
17781;BME280;8498;52.516;13.790;2023-01-31T07:11:14;101124.53;;;5.36;81.77
17781;BME280;8498;52.516;13.790;2023-01-31T07:16:36;101114.41;;;5.47;81.57
17781;BME280;8498;52.516;13.790;2023-01-31T07:22:01;101106.84;;;5.39;81.88
17781;BME280;8498;52.516;13.790;2023-01-31T07:27:24;101115.13;;;5.50;82.14
17781;BME280;8498;52.516;13.790;2023-01-31T07:32:46;101113.13;;;5.57;82.24
17781;BME280;8498;52.516;13.790;2023-01-31T07:38:09;101108.66;;;5.59;82.28
17781;BME280;8498;52.516;13.790;2023-01-31T07:43:33;101104.84;;;5.66;82.26
17781;BME280;8498;52.516;13.790;2023-01-31T07:48:56;101116.19;;;5.68;82.67
17781;BME280;8498;52.516;13.790;2023-01-31T07:54:18;101121.56;;;5.65;82.95
17781;BME280;8498;52.516;13.790;2023-01-31T07:59:40;101121.19;;;5.74;83.41
17781;BME280;8498;52.516;13.790;2023-01-31T08:05:02;101133.94;;;5.63;84.41
17781;BME280;8498;52.516;13.790;2023-01-31T08:10:25;101129.47;;;5.65;84.43
17781;BME280;8498;52.516;13.790;2023-01-31T08:15:50;101132.81;;;5.70;85.51
17781;BME280;8498;52.516;13.790;2023-01-31T08:21:13;101135.81;;;5.81;86.50
17781;BME280;8498;52.516;13.790;2023-01-31T08:26:36;101131.09;;;5.69;88.67
17781;BME280;8498;52.516;13.790;2023-01-31T08:31:59;101121.16;;;5.54;89.87
17781;BME280;8498;52.516;13.790;2023-01-31T08:37:22;101113.00;;;5.60;90.45
17781;BME280;8498;52.516;13.790;2023-01-31T08:42:53;101112.81;;;5.65;90.91
17781;BME280;8498;52.516;13.790;2023-01-31T08:48:15;101116.63;;;5.58;91.79
17781;BME280;8498;52.516;13.790;2023-01-31T08:53:39;101106.75;;;5.63;92.07
17781;BME280;8498;52.516;13.790;2023-01-31T08:59:02;101116.25;;;5.67;92.26
17781;BME280;8498;52.516;13.790;2023-01-31T09:04:24;101099.31;;;5.72;92.30
17781;BME280;8498;52.516;13.790;2023-01-31T09:09:47;101099.56;;;5.66;92.52
17781;BME280;8498;52.516;13.790;2023-01-31T09:15:11;101088.22;;;5.64;92.04
17781;BME280;8498;52.516;13.790;2023-01-31T09:20:33;101081.53;;;5.77;92.10
17781;BME280;8498;52.516;13.790;2023-01-31T09:25:56;101081.59;;;5.76;92.14
17781;BME280;8498;52.516;13.790;2023-01-31T09:31:19;101076.44;;;5.95;91.62
17781;BME280;8498;52.516;13.790;2023-01-31T09:36:42;101074.66;;;5.95;90.48
17781;BME280;8498;52.516;13.790;2023-01-31T09:42:30;101074.66;;;5.95;90.07
17781;BME280;8498;52.516;13.790;2023-01-31T09:47:57;101065.53;;;6.02;89.56
17781;BME280;8498;52.516;13.790;2023-01-31T09:53:27;101061.81;;;6.08;89.04
17781;BME280;8498;52.516;13.790;2023-01-31T09:59:17;101050.59;;;6.03;88.29
17781;BME280;8498;52.516;13.790;2023-01-31T10:10:37;101026.13;;;6.19;86.86
17781;BME280;8498;52.516;13.790;2023-01-31T10:16:29;101023.34;;;6.22;86.77
17781;BME280;8498;52.516;13.790;2023-01-31T10:21:59;101019.72;;;6.44;86.36
17781;BME280;8498;52.516;13.790;2023-01-31T10:27:37;101006.47;;;6.45;85.58
17781;BME280;8498;52.516;13.790;2023-01-31T10:33:18;100982.16;;;6.39;85.61
17781;BME280;8498;52.516;13.790;2023-01-31T10:38:57;100977.28;;;6.48;84.83
17781;BME280;8498;52.516;13.790;2023-01-31T10:49:54;100956.03;;;6.70;84.68
17781;BME280;8498;52.516;13.790;2023-01-31T11:00:52;100936.47;;;6.74;84.38
17781;BME280;8498;52.516;13.790;2023-01-31T11:06:15;100928.13;;;6.64;84.45
17781;BME280;8498;52.516;13.790;2023-01-31T11:11:55;100917.72;;;6.61;85.43
17781;BME280;8498;52.516;13.790;2023-01-31T11:17:22;100912.13;;;6.68;85.42
17781;BME280;8498;52.516;13.790;2023-01-31T11:22:45;100898.31;;;6.62;85.61
17781;BME280;8498;52.516;13.790;2023-01-31T11:28:39;100878.06;;;6.63;85.15
17781;BME280;8498;52.516;13.790;2023-01-31T11:34:04;100863.09;;;6.63;85.06
17781;BME280;8498;52.516;13.790;2023-01-31T11:39:34;100847.94;;;6.67;85.18
17781;BME280;8498;52.516;13.790;2023-01-31T11:50:36;100834.97;;;6.62;85.88
17781;BME280;8498;52.516;13.790;2023-01-31T11:56:10;100830.44;;;6.64;87.06
17781;BME280;8498;52.516;13.790;2023-01-31T12:01:44;100807.25;;;6.71;87.22
17781;BME280;8498;52.516;13.790;2023-01-31T12:07:22;100798.41;;;6.72;87.32
17781;BME280;8498;52.516;13.790;2023-01-31T12:12:50;100785.56;;;6.64;87.78
17781;BME280;8498;52.516;13.790;2023-01-31T12:18:37;100757.78;;;6.57;88.97
17781;BME280;8498;52.516;13.790;2023-01-31T12:35:46;100720.97;;;6.54;90.19
17781;BME280;8498;52.516;13.790;2023-01-31T13:04:12;100683.88;;;6.23;93.61
17781;BME280;8498;52.516;13.790;2023-01-31T13:09:37;100671.94;;;6.16;94.30
17781;BME280;8498;52.516;13.790;2023-01-31T13:15:06;100660.00;;;6.09;95.35
17781;BME280;8498;52.516;13.790;2023-01-31T13:20:46;100651.22;;;6.08;96.89
17781;BME280;8498;52.516;13.790;2023-01-31T13:26:18;100644.63;;;6.00;97.65
17781;BME280;8498;52.516;13.790;2023-01-31T13:31:44;100642.63;;;5.86;98.93
17781;BME280;8498;52.516;13.790;2023-01-31T13:37:10;100636.03;;;5.77;100.00
17781;BME280;8498;52.516;13.790;2023-01-31T13:42:37;100632.75;;;5.72;100.00
17781;BME280;8498;52.516;13.790;2023-01-31T13:48:07;100621.47;;;5.70;100.00
17781;BME280;8498;52.516;13.790;2023-01-31T13:54:05;100616.47;;;5.64;100.00
17781;BME280;8498;52.516;13.790;2023-01-31T13:59:28;100602.63;;;5.78;100.00
17781;BME280;8498;52.516;13.790;2023-01-31T14:04:51;100615.81;;;5.78;99.93
17781;BME280;8498;52.516;13.790;2023-01-31T14:15:47;100606.25;;;5.75;100.00
17781;BME280;8498;52.516;13.790;2023-01-31T14:26:52;100601.63;;;5.80;100.00
17781;BME280;8498;52.516;13.790;2023-01-31T14:32:24;100592.38;;;5.91;100.00
17781;BME280;8498;52.516;13.790;2023-01-31T15:00:56;100549.53;;;6.03;100.00
17781;BME280;8498;52.516;13.790;2023-01-31T15:06:32;100543.03;;;6.10;100.00
17781;BME280;8498;52.516;13.790;2023-01-31T15:11:57;100547.19;;;6.14;100.00
17781;BME280;8498;52.516;13.790;2023-01-31T15:17:24;100548.59;;;6.21;100.00
17781;BME280;8498;52.516;13.790;2023-01-31T15:23:03;100548.28;;;6.27;100.00
17781;BME280;8498;52.516;13.790;2023-01-31T15:28:34;100547.34;;;6.28;100.00
17781;BME280;8498;52.516;13.790;2023-01-31T15:34:02;100544.47;;;6.33;100.00
17781;BME280;8498;52.516;13.790;2023-01-31T15:39:31;100536.94;;;6.42;100.00
17781;BME280;8498;52.516;13.790;2023-01-31T15:45:28;100527.59;;;6.35;100.00
17781;BME280;8498;52.516;13.790;2023-01-31T15:50:56;100536.66;;;6.47;100.00
17781;BME280;8498;52.516;13.790;2023-01-31T15:56:23;100528.81;;;6.45;100.00
17781;BME280;8498;52.516;13.790;2023-01-31T16:01:47;100521.09;;;6.58;100.00
17781;BME280;8498;52.516;13.790;2023-01-31T16:07:19;100503.84;;;6.52;100.00
17781;BME280;8498;52.516;13.790;2023-01-31T16:12:47;100511.81;;;6.67;100.00
17781;BME280;8498;52.516;13.790;2023-01-31T16:18:11;100516.53;;;6.61;100.00
17781;BME280;8498;52.516;13.790;2023-01-31T16:23:35;100496.06;;;6.65;100.00
17781;BME280;8498;52.516;13.790;2023-01-31T16:29:04;100527.44;;;6.71;100.00
17781;BME280;8498;52.516;13.790;2023-01-31T16:34:31;100506.22;;;6.73;100.00
17781;BME280;8498;52.516;13.790;2023-01-31T16:40:05;100526.41;;;6.74;100.00
17781;BME280;8498;52.516;13.790;2023-01-31T16:45:30;100527.78;;;6.81;100.00
17781;BME280;8498;52.516;13.790;2023-01-31T16:50:58;100536.78;;;6.77;100.00
17781;BME280;8498;52.516;13.790;2023-01-31T16:56:21;100511.50;;;6.88;100.00
17781;BME280;8498;52.516;13.790;2023-01-31T17:01:57;100499.00;;;6.92;100.00
17781;BME280;8498;52.516;13.790;2023-01-31T17:07:33;100484.78;;;6.94;100.00
17781;BME280;8498;52.516;13.790;2023-01-31T17:13:01;100495.41;;;6.93;100.00
17781;BME280;8498;52.516;13.790;2023-01-31T17:18:24;100493.75;;;7.06;100.00
17781;BME280;8498;52.516;13.790;2023-01-31T17:23:47;100494.91;;;7.02;100.00
17781;BME280;8498;52.516;13.790;2023-01-31T17:29:10;100477.59;;;7.12;100.00
17781;BME280;8498;52.516;13.790;2023-01-31T17:34:32;100490.19;;;7.07;100.00
17781;BME280;8498;52.516;13.790;2023-01-31T17:39:54;100468.13;;;7.08;100.00
17781;BME280;8498;52.516;13.790;2023-01-31T17:45:18;100455.84;;;7.07;100.00
17781;BME280;8498;52.516;13.790;2023-01-31T17:50:41;100449.16;;;7.02;100.00
17781;BME280;8498;52.516;13.790;2023-01-31T17:56:05;100450.69;;;7.06;100.00
17781;BME280;8498;52.516;13.790;2023-01-31T18:01:28;100425.53;;;7.14;100.00
17781;BME280;8498;52.516;13.790;2023-01-31T18:06:50;100404.72;;;7.08;100.00
17781;BME280;8498;52.516;13.790;2023-01-31T18:12:13;100388.34;;;7.17;100.00
17781;BME280;8498;52.516;13.790;2023-01-31T18:17:37;100396.69;;;7.25;100.00
17781;BME280;8498;52.516;13.790;2023-01-31T18:22:59;100403.09;;;7.21;100.00
17781;BME280;8498;52.516;13.790;2023-01-31T18:28:22;100393.75;;;7.30;100.00
17781;BME280;8498;52.516;13.790;2023-01-31T18:33:46;100391.72;;;7.35;100.00
17781;BME280;8498;52.516;13.790;2023-01-31T18:39:09;100377.81;;;7.31;99.84
17781;BME280;8498;52.516;13.790;2023-01-31T18:44:32;100367.16;;;7.33;99.55
17781;BME280;8498;52.516;13.790;2023-01-31T18:49:55;100361.78;;;7.34;97.92
17781;BME280;8498;52.516;13.790;2023-01-31T18:55:17;100371.13;;;7.40;96.94
17781;BME280;8498;52.516;13.790;2023-01-31T19:00:40;100376.50;;;7.38;95.78
17781;BME280;8498;52.516;13.790;2023-01-31T19:11:29;100348.06;;;7.58;94.30
17781;BME280;8498;52.516;13.790;2023-01-31T19:16:52;100349.53;;;7.48;94.02
17781;BME280;8498;52.516;13.790;2023-01-31T19:22:15;100367.09;;;7.63;94.31
17781;BME280;8498;52.516;13.790;2023-01-31T19:27:39;100410.72;;;7.56;96.34
17781;BME280;8498;52.516;13.790;2023-01-31T19:33:02;100445.81;;;7.14;94.40
17781;BME280;8498;52.516;13.790;2023-01-31T19:38:24;100422.59;;;6.57;92.35
17781;BME280;8498;52.516;13.790;2023-01-31T19:43:48;100391.69;;;6.44;90.11
17781;BME280;8498;52.516;13.790;2023-01-31T19:49:11;100400.03;;;6.36;88.93
17781;BME280;8498;52.516;13.790;2023-01-31T19:54:33;100396.81;;;6.31;90.48
17781;BME280;8498;52.516;13.790;2023-01-31T19:59:56;100415.03;;;6.20;91.12
17781;BME280;8498;52.516;13.790;2023-01-31T20:05:19;100415.03;;;6.20;91.06
17781;BME280;8498;52.516;13.790;2023-01-31T20:10:41;100413.81;;;6.25;90.29
17781;BME280;8498;52.516;13.790;2023-01-31T20:16:09;100429.94;;;6.04;90.02
17781;BME280;8498;52.516;13.790;2023-01-31T20:21:32;100432.56;;;6.21;90.44
17781;BME280;8498;52.516;13.790;2023-01-31T20:26:55;100439.47;;;6.06;90.15
17781;BME280;8498;52.516;13.790;2023-01-31T20:32:19;100441.88;;;6.11;89.64
17781;BME280;8498;52.516;13.790;2023-01-31T20:37:42;100445.81;;;6.19;89.30
17781;BME280;8498;52.516;13.790;2023-01-31T20:43:05;100454.00;;;6.31;88.49
17781;BME280;8498;52.516;13.790;2023-01-31T20:48:27;100450.81;;;6.24;88.38
17781;BME280;8498;52.516;13.790;2023-01-31T20:53:50;100457.16;;;6.21;87.86
17781;BME280;8498;52.516;13.790;2023-01-31T20:59:13;100458.16;;;6.19;88.18
17781;BME280;8498;52.516;13.790;2023-01-31T21:04:35;100463.34;;;6.36;91.31
17781;BME280;8498;52.516;13.790;2023-01-31T21:09:58;100470.34;;;6.21;87.35
17781;BME280;8498;52.516;13.790;2023-01-31T21:15:20;100495.00;;;6.20;88.15
17781;BME280;8498;52.516;13.790;2023-01-31T21:20:43;100496.16;;;6.15;87.74
17781;BME280;8498;52.516;13.790;2023-01-31T21:26:08;100518.47;;;6.25;87.21
17781;BME280;8498;52.516;13.790;2023-01-31T21:31:31;100503.88;;;6.35;87.05
17781;BME280;8498;52.516;13.790;2023-01-31T21:36:55;100505.94;;;6.46;87.37
17781;BME280;8498;52.516;13.790;2023-01-31T21:42:19;100525.59;;;6.40;87.44
17781;BME280;8498;52.516;13.790;2023-01-31T21:47:42;100549.84;;;6.47;86.84
17781;BME280;8498;52.516;13.790;2023-01-31T21:53:24;100570.13;;;6.46;86.16
17781;BME280;8498;52.516;13.790;2023-01-31T21:58:52;100564.75;;;5.98;88.37
17781;BME280;8498;52.516;13.790;2023-01-31T22:04:17;100545.97;;;5.86;88.45
17781;BME280;8498;52.516;13.790;2023-01-31T22:09:44;100542.16;;;5.58;89.44
17781;BME280;8498;52.516;13.790;2023-01-31T22:15:07;100548.00;;;5.28;89.44
17781;BME280;8498;52.516;13.790;2023-01-31T22:20:29;100540.56;;;5.19;89.08
17781;BME280;8498;52.516;13.790;2023-01-31T22:25:52;100527.28;;;5.21;88.57
17781;BME280;8498;52.516;13.790;2023-01-31T22:31:17;100526.94;;;5.28;88.84
17781;BME280;8498;52.516;13.790;2023-01-31T22:36:40;100520.81;;;5.28;88.85
17781;BME280;8498;52.516;13.790;2023-01-31T22:42:03;100515.75;;;5.23;89.52
17781;BME280;8498;52.516;13.790;2023-01-31T22:47:25;100511.47;;;5.21;89.98
17781;BME280;8498;52.516;13.790;2023-01-31T22:52:48;100523.31;;;5.12;90.59
17781;BME280;8498;52.516;13.790;2023-01-31T22:58:10;100521.25;;;5.19;90.94
17781;BME280;8498;52.516;13.790;2023-01-31T23:03:32;100529.16;;;5.19;91.61
17781;BME280;8498;52.516;13.790;2023-01-31T23:08:55;100511.47;;;5.21;90.85
17781;BME280;8498;52.516;13.790;2023-01-31T23:14:17;100535.22;;;5.38;90.41
17781;BME280;8498;52.516;13.790;2023-01-31T23:19:41;100524.69;;;5.38;89.84
17781;BME280;8498;52.516;13.790;2023-01-31T23:25:06;100530.72;;;5.40;88.73
17781;BME280;8498;52.516;13.790;2023-01-31T23:30:29;100542.94;;;5.60;87.61
17781;BME280;8498;52.516;13.790;2023-01-31T23:35:52;100535.56;;;5.66;89.26
17781;BME280;8498;52.516;13.790;2023-01-31T23:41:15;100526.41;;;5.56;90.97
17781;BME280;8498;52.516;13.790;2023-01-31T23:46:37;100535.03;;;5.60;91.41
17781;BME280;8498;52.516;13.790;2023-01-31T23:51:59;100532.00;;;5.67;91.53
17781;BME280;8498;52.516;13.790;2023-01-31T23:57:22;100536.94;;;5.73;91.22
